Time;durP1;ratioP1;P1;durP2;ratioP2;P2;SDS_P1;SDS_P2;PMS_P1;PMS_P2;Temp;Humidity;BMP_temperature;BMP_pressure;BME280_temperature;BME280_humidity;BME280_pressure;Samples;Min_cycle;Max_cycle;Signal;HPM_P1;HPM_P2
2021/09/19 00:00:15;;;;;;;6.43;4.65;;;6.80;73.80;;;;;;5055001;28;20013;-77
2021/09/19 00:02:41;;;;;;;7.47;4.40;;;6.80;74.00;;;;;;5058184;28;20366;-77
2021/09/19 00:05:09;;;;;;;8.27;4.63;;;6.80;74.00;;;;;;5055842;28;20021;-77
2021/09/19 00:07:35;;;;;;;9.20;5.65;;;6.80;73.90;;;;;;5056653;28;20048;-77
2021/09/19 00:10:02;;;;;;;9.07;4.30;;;6.80;74.00;;;;;;5048313;28;20025;-80
2021/09/19 00:12:28;;;;;;;6.65;4.72;;;6.80;73.90;;;;;;5050135;28;20036;-75
2021/09/19 00:14:54;;;;;;;7.38;4.80;;;6.70;74.00;;;;;;5055993;28;20104;-77
2021/09/19 00:17:20;;;;;;;7.47;5.07;;;6.70;74.10;;;;;;5055833;28;20025;-77
2021/09/19 00:19:46;;;;;;;6.78;4.60;;;6.70;74.10;;;;;;5056108;28;20078;-76
2021/09/19 00:22:11;;;;;;;7.82;5.50;;;6.70;74.20;;;;;;5055908;28;20032;-76
2021/09/19 00:24:37;;;;;;;6.80;4.93;;;6.60;74.30;;;;;;5048282;28;20025;-76
2021/09/19 00:27:03;;;;;;;7.38;5.57;;;6.60;74.40;;;;;;5053374;28;20347;-77
2021/09/19 00:29:30;;;;;;;5.75;4.38;;;6.60;74.80;;;;;;5058404;28;20021;-77
2021/09/19 00:31:56;;;;;;;6.20;4.88;;;6.60;74.90;;;;;;5060256;28;20451;-76
2021/09/19 00:34:22;;;;;;;7.88;5.45;;;6.60;75.00;;;;;;5057993;28;20108;-76
2021/09/19 00:36:48;;;;;;;7.07;4.80;;;6.60;74.60;;;;;;5056752;28;20028;-77
2021/09/19 00:39:14;;;;;;;9.75;5.22;;;6.50;74.70;;;;;;5055627;28;20086;-76
2021/09/19 00:41:40;;;;;;;8.95;5.38;;;6.50;74.90;;;;;;5045651;28;20025;-76
2021/09/19 00:44:08;;;;;;;9.18;5.43;;;6.50;74.90;;;;;;5052755;28;20071;-76
2021/09/19 00:46:33;;;;;;;;;;;6.50;75.00;;;;;;5055595;28;20428;-75
2021/09/19 00:48:59;;;;;;;7.45;5.35;;;6.50;74.80;;;;;;5055296;28;19995;-78
2021/09/19 00:51:27;;;;;;;5.20;4.32;;;6.50;74.80;;;;;;5036938;28;20132;-77
2021/09/19 00:53:55;;;;;;;8.07;4.93;;;6.50;74.90;;;;;;5055007;28;20044;-77
2021/09/19 00:56:25;;;;;;;9.10;5.57;;;6.40;75.00;;;;;;5037619;28;20502;-78
2021/09/19 00:58:52;;;;;;;10.55;5.15;;;6.40;75.10;;;;;;5055375;28;20465;-78
2021/09/19 01:01:19;;;;;;;6.57;4.68;;;6.50;75.20;;;;;;5055271;28;20024;-77
2021/09/19 01:03:45;;;;;;;7.90;5.22;;;6.40;74.90;;;;;;5037258;28;20021;-78
2021/09/19 01:06:11;;;;;;;11.52;4.85;;;6.40;75.00;;;;;;5036909;28;20474;-79
2021/09/19 01:08:42;;;;;;;10.00;4.77;;;6.40;75.10;;;;;;5056622;28;20021;-78
2021/09/19 01:11:10;;;;;;;5.68;4.25;;;6.50;75.20;;;;;;5049336;28;20052;-80
2021/09/19 01:13:39;;;;;;;6.93;5.03;;;6.50;74.70;;;;;;5054721;28;20047;-79
2021/09/19 01:16:05;;;;;;;8.93;4.88;;;6.50;74.40;;;;;;5054427;28;20021;-79
2021/09/19 01:18:32;;;;;;;6.63;3.55;;;6.40;74.50;;;;;;5037196;28;20057;-77
2021/09/19 01:20:58;;;;;;;8.15;5.53;;;6.40;74.50;;;;;;5055267;28;20092;-79
2021/09/19 01:23:24;;;;;;;8.55;4.35;;;6.40;74.60;;;;;;5054930;28;20092;-79
2021/09/19 01:25:50;;;;;;;7.40;4.70;;;6.40;74.50;;;;;;5055670;28;20024;-77
2021/09/19 01:28:16;;;;;;;8.75;4.47;;;6.40;74.40;;;;;;5036975;28;20500;-78
2021/09/19 01:30:42;;;;;;;6.53;4.40;;;6.40;74.20;;;;;;5036602;28;20020;-77
2021/09/19 01:33:08;;;;;;;7.85;3.88;;;6.40;74.20;;;;;;5054447;28;20037;-78
2021/09/19 01:35:34;;;;;;;5.78;4.30;;;6.40;74.10;;;;;;5054131;28;20390;-78
2021/09/19 01:38:03;;;;;;;7.28;4.32;;;6.30;74.10;;;;;;5054334;28;20025;-79
2021/09/19 01:40:30;;;;;;;7.22;4.45;;;6.40;74.00;;;;;;5043194;28;20025;-77
2021/09/19 01:42:56;;;;;;;5.73;4.07;;;6.40;74.10;;;;;;5054282;28;20028;-78
2021/09/19 01:45:23;;;;;;;6.22;4.18;;;6.30;74.00;;;;;;5053312;28;20082;-78
2021/09/19 01:47:49;;;;;;;5.32;4.18;;;6.30;74.10;;;;;;5054134;28;20036;-78
2021/09/19 01:50:15;;;;;;;6.30;4.97;;;6.20;74.00;;;;;;5053901;28;20064;-77
2021/09/19 01:52:41;;;;;;;4.35;3.75;;;6.30;74.10;;;;;;5053843;28;20025;-77
2021/09/19 01:55:08;;;;;;;5.20;4.07;;;6.20;74.00;;;;;;5054164;28;20025;-77
2021/09/19 01:57:34;;;;;;;6.47;4.40;;;6.30;74.20;;;;;;5054052;28;20323;-79
2021/09/19 02:00:00;;;;;;;5.82;3.80;;;6.20;74.30;;;;;;5054838;28;20025;-79
2021/09/19 02:02:26;;;;;;;10.27;4.85;;;6.20;74.40;;;;;;5054466;28;20043;-78
2021/09/19 02:04:53;;;;;;;9.10;3.70;;;6.20;74.40;;;;;;5054262;28;20013;-75
2021/09/19 02:07:19;;;;;;;5.50;3.53;;;6.20;74.30;;;;;;5054121;28;20104;-78
2021/09/19 02:09:45;;;;;;;4.43;3.47;;;6.20;74.40;;;;;;5053815;28;20203;-77
2021/09/19 02:12:14;;;;;;;5.35;3.05;;;6.20;74.40;;;;;;5053869;28;20029;-77
2021/09/19 02:14:41;;;;;;;4.53;3.08;;;6.20;74.50;;;;;;5053510;28;20032;-78
2021/09/19 02:17:07;;;;;;;5.68;3.95;;;6.20;74.60;;;;;;5052625;28;20473;-78
2021/09/19 02:19:33;;;;;;;4.70;3.20;;;6.20;74.60;;;;;;5053710;28;20033;-78
2021/09/19 02:21:59;;;;;;;4.57;3.47;;;6.20;74.80;;;;;;5053200;28;20029;-78
2021/09/19 02:24:25;;;;;;;6.07;3.92;;;6.20;74.80;;;;;;5053550;28;20071;-78
2021/09/19 02:26:50;;;;;;;6.30;4.07;;;6.10;74.80;;;;;;5053934;28;20485;-76
2021/09/19 02:29:16;;;;;;;6.10;4.00;;;6.20;75.00;;;;;;5053560;28;20496;-77
2021/09/19 02:31:42;;;;;;;5.63;3.42;;;6.10;75.00;;;;;;5053657;28;20056;-79
2021/09/19 02:34:08;;;;;;;7.35;4.43;;;6.20;75.00;;;;;;5053115;28;20442;-77
2021/09/19 02:36:34;;;;;;;8.18;5.15;;;6.10;75.20;;;;;;5053275;28;20025;-78
2021/09/19 02:38:59;;;;;;;5.20;4.53;;;6.10;75.10;;;;;;5045811;28;20021;-77
2021/09/19 02:41:25;;;;;;;6.22;5.28;;;6.10;75.20;;;;;;5053135;28;20535;-78
2021/09/19 02:43:52;;;;;;;5.63;4.10;;;6.10;75.20;;;;;;5051575;28;20056;-78
2021/09/19 02:46:18;;;;;;;6.45;4.97;;;6.10;75.30;;;;;;5052979;28;20017;-77
2021/09/19 02:48:44;;;;;;;7.95;4.80;;;6.10;75.50;;;;;;5051761;28;20025;-76
2021/09/19 02:51:10;;;;;;;7.78;5.13;;;6.10;75.30;;;;;;5052601;28;20064;-77
2021/09/19 02:53:35;;;;;;;6.55;4.80;;;6.10;75.10;;;;;;5052783;28;20094;-78
2021/09/19 02:56:01;;;;;;;7.15;4.75;;;6.10;75.20;;;;;;5052591;28;20497;-78
2021/09/19 02:58:27;;;;;;;8.57;5.25;;;6.10;75.30;;;;;;5052589;28;20029;-77
2021/09/19 03:00:53;;;;;;;6.63;4.43;;;6.10;75.30;;;;;;5052474;28;20083;-78
2021/09/19 03:03:19;;;;;;;6.53;5.05;;;6.10;75.30;;;;;;5052713;28;20445;-78
2021/09/19 03:05:44;;;;;;;6.85;5.10;;;6.10;75.30;;;;;;5052624;28;20035;-78
2021/09/19 03:08:10;;;;;;;6.47;4.50;;;6.10;75.40;;;;;;5052487;28;20033;-78
2021/09/19 03:10:36;;;;;;;8.38;4.78;;;6.20;75.50;;;;;;5052450;28;20032;-79
2021/09/19 03:13:03;;;;;;;7.05;5.03;;;6.10;75.50;;;;;;5052299;28;20033;-78
2021/09/19 03:15:29;;;;;;;6.95;4.60;;;6.10;75.60;;;;;;5052504;28;20020;-78
2021/09/19 03:17:54;;;;;;;5.40;4.28;;;6.10;75.70;;;;;;5051028;28;20021;-78
2021/09/19 03:20:20;;;;;;;6.05;4.10;;;6.20;75.60;;;;;;5052467;28;20158;-78
2021/09/19 03:22:46;;;;;;;6.38;4.40;;;6.20;75.70;;;;;;5052353;28;20103;-79
2021/09/19 03:25:13;;;;;;;5.13;4.55;;;6.20;75.80;;;;;;5052247;28;20025;-78
2021/09/19 03:27:39;;;;;;;13.10;5.03;;;6.20;75.90;;;;;;5048424;28;20111;-78
2021/09/19 03:30:07;;;;;;;5.18;3.67;;;6.10;75.90;;;;;;5049777;28;20025;-78
2021/09/19 03:32:33;;;;;;;8.02;5.20;;;6.10;76.20;;;;;;5052259;28;20090;-78
2021/09/19 03:34:59;;;;;;;9.88;4.38;;;6.00;76.50;;;;;;5049891;28;20029;-78
2021/09/19 03:37:25;;;;;;;7.93;4.75;;;6.00;76.60;;;;;;5051727;28;20032;-78
2021/09/19 03:39:51;;;;;;;7.78;5.05;;;6.00;76.80;;;;;;5053173;28;20032;-77
2021/09/19 03:42:16;;;;;;;8.57;4.95;;;5.90;77.10;;;;;;5052558;28;20092;-78
2021/09/19 03:44:42;;;;;;;7.63;4.25;;;5.90;77.20;;;;;;5051074;28;20120;-78
2021/09/19 03:47:08;;;;;;;6.97;4.78;;;5.90;77.30;;;;;;5051033;28;20075;-78
2021/09/19 03:49:34;;;;;;;7.45;4.35;;;5.90;77.40;;;;;;5052011;28;20025;-79
2021/09/19 03:52:00;;;;;;;7.97;5.03;;;5.90;77.60;;;;;;5051913;28;20069;-77
2021/09/19 03:54:25;;;;;;;6.70;4.50;;;5.90;77.80;;;;;;5051992;28;20128;-76
2021/09/19 03:56:51;;;;;;;7.25;4.57;;;6.00;77.80;;;;;;5062079;28;20046;-76
2021/09/19 03:59:17;;;;;;;9.05;5.13;;;5.90;77.80;;;;;;5059769;28;20536;-76
2021/09/19 04:01:43;;;;;;;7.15;4.55;;;6.00;77.80;;;;;;5055592;28;20021;-77
2021/09/19 04:04:08;;;;;;;7.72;5.15;;;6.00;77.90;;;;;;5051959;28;20120;-79
2021/09/19 04:06:34;;;;;;;7.75;5.18;;;6.10;78.00;;;;;;5051819;28;20073;-78
2021/09/19 04:09:00;;;;;;;7.35;4.78;;;6.10;78.00;;;;;;5050540;28;20028;-79
2021/09/19 04:11:26;;;;;;;4.72;4.20;;;6.20;77.80;;;;;;5051724;28;20021;-77
2021/09/19 04:13:52;;;;;;;9.57;5.88;;;6.20;77.80;;;;;;5051813;28;20025;-78
2021/09/19 04:16:17;;;;;;;10.93;5.43;;;6.20;77.70;;;;;;5051614;28;20024;-75
2021/09/19 04:18:43;;;;;;;8.98;5.78;;;6.20;77.60;;;;;;5052218;28;20497;-77
2021/09/19 04:21:09;;;;;;;9.93;5.53;;;6.30;77.60;;;;;;5052463;28;20100;-76
2021/09/19 04:23:35;;;;;;;9.65;6.57;;;6.20;77.40;;;;;;5051685;28;20025;-77
2021/09/19 04:26:01;;;;;;;8.60;5.78;;;6.20;77.60;;;;;;5051824;28;20575;-77
2021/09/19 04:28:26;;;;;;;8.80;6.30;;;6.20;78.00;;;;;;5051531;28;20053;-77
2021/09/19 04:30:52;;;;;;;7.50;5.88;;;6.20;78.20;;;;;;5051702;28;20366;-76
2021/09/19 04:33:18;;;;;;;8.05;5.93;;;6.30;78.00;;;;;;5050147;28;20025;-77
2021/09/19 04:35:44;;;;;;;8.13;5.70;;;6.40;77.80;;;;;;5045868;28;20048;-76
2021/09/19 04:38:10;;;;;;;9.38;5.45;;;6.40;77.90;;;;;;5045652;28;20123;-76
2021/09/19 04:40:36;;;;;;;9.73;5.72;;;6.50;77.40;;;;;;5051377;28;20108;-77
2021/09/19 04:43:02;;;;;;;9.02;6.05;;;6.50;77.40;;;;;;5051579;28;20021;-77
2021/09/19 04:45:28;;;;;;;7.00;5.30;;;6.50;77.30;;;;;;5051248;28;20048;-77
2021/09/19 04:47:54;;;;;;;10.00;6.72;;;6.40;77.10;;;;;;5055230;28;20033;-77
2021/09/19 04:50:20;;;;;;;8.40;6.75;;;6.40;77.40;;;;;;5055082;28;20103;-77
2021/09/19 04:52:45;;;;;;;8.82;5.80;;;6.40;77.60;;;;;;5053508;28;20098;-76
2021/09/19 04:55:11;;;;;;;7.80;6.63;;;6.60;77.50;;;;;;5053610;28;20021;-77
2021/09/19 04:57:37;;;;;;;8.15;6.07;;;6.60;77.10;;;;;;5054598;28;20025;-77
2021/09/19 05:00:05;;;;;;;9.90;5.40;;;6.60;77.30;;;;;;5054794;28;20151;-78
2021/09/19 05:02:31;;;;;;;8.43;4.85;;;6.60;76.90;;;;;;5054659;28;20025;-77
2021/09/19 05:04:56;;;;;;;9.88;5.65;;;6.60;76.90;;;;;;5054713;28;20070;-76
2021/09/19 05:07:22;;;;;;;8.20;6.50;;;6.60;76.60;;;;;;5054726;28;20025;-78
2021/09/19 05:09:48;;;;;;;10.15;5.28;;;6.60;76.70;;;;;;5054521;28;20086;-79
2021/09/19 05:12:14;;;;;;;10.18;7.07;;;6.50;77.00;;;;;;5054577;28;20029;-78
2021/09/19 05:14:40;;;;;;;6.40;5.07;;;6.50;77.10;;;;;;5054619;28;20098;-79
2021/09/19 05:17:05;;;;;;;7.72;5.45;;;6.60;77.20;;;;;;5054623;28;20036;-78
2021/09/19 05:19:31;;;;;;;9.20;6.05;;;6.50;77.00;;;;;;5054397;28;20040;-78
2021/09/19 05:21:57;;;;;;;11.38;5.60;;;6.50;77.30;;;;;;5054550;28;20021;-79
2021/09/19 05:24:23;;;;;;;9.05;5.97;;;6.50;77.40;;;;;;5054545;28;20032;-77
2021/09/19 05:26:48;;;;;;;8.82;5.63;;;6.60;77.30;;;;;;5054247;28;20020;-78
2021/09/19 05:29:14;;;;;;;9.13;5.50;;;6.50;77.00;;;;;;5053507;28;20033;-78
2021/09/19 05:31:40;;;;;;;7.75;5.68;;;6.50;77.20;;;;;;5054224;28;20017;-78
2021/09/19 05:34:06;;;;;;;9.20;6.47;;;6.50;77.10;;;;;;5050295;28;20039;-78
2021/09/19 05:36:32;;;;;;;8.98;5.32;;;6.60;77.20;;;;;;5048554;28;20032;-80
2021/09/19 05:38:58;;;;;;;8.55;6.10;;;6.70;76.90;;;;;;5054125;28;20037;-79
2021/09/19 05:41:24;;;;;;;8.23;5.05;;;6.70;76.70;;;;;;5054218;28;20039;-77
2021/09/19 05:43:49;;;;;;;9.00;5.18;;;6.60;76.70;;;;;;5054014;28;20025;-78
2021/09/19 05:46:17;;;;;;;10.50;5.95;;;6.60;76.80;;;;;;5054098;28;20390;-78
2021/09/19 05:48:43;;;;;;;7.80;6.40;;;6.70;77.00;;;;;;5054342;28;20029;-79
2021/09/19 05:51:10;;;;;;;8.45;5.78;;;6.70;76.80;;;;;;5054086;28;20494;-78
2021/09/19 05:53:37;;;;;;;7.80;6.68;;;6.80;76.30;;;;;;5054268;28;20045;-80
2021/09/19 05:56:03;;;;;;;7.87;5.63;;;6.80;76.50;;;;;;5053943;28;20025;-78
2021/09/19 05:58:29;;;;;;;11.20;6.00;;;6.80;76.30;;;;;;5053245;28;20016;-79
2021/09/19 06:00:55;;;;;;;10.75;7.10;;;6.90;76.40;;;;;;5052622;28;20086;-80
2021/09/19 06:03:21;;;;;;;8.82;6.35;;;7.00;76.00;;;;;;5052761;28;20017;-78
2021/09/19 06:05:47;;;;;;;8.55;6.57;;;7.00;75.60;;;;;;5054300;28;20025;-79
2021/09/19 06:08:13;;;;;;;10.60;6.57;;;7.00;75.60;;;;;;5053503;28;20021;-81
2021/09/19 06:10:38;;;;;;;8.55;6.18;;;6.90;75.90;;;;;;5053530;28;20032;-78
2021/09/19 06:13:04;;;;;;;9.48;6.18;;;6.90;76.00;;;;;;5053759;28;20033;-78
2021/09/19 06:15:31;;;;;;;8.95;6.80;;;7.00;75.70;;;;;;5053856;28;20033;-77
2021/09/19 06:17:56;;;;;;;7.93;6.93;;;7.00;75.70;;;;;;5036645;28;20029;-79
2021/09/19 06:20:22;;;;;;;11.50;8.45;;;7.00;75.70;;;;;;5054348;28;20390;-78
2021/09/19 06:22:48;;;;;;;11.32;7.43;;;7.00;75.70;;;;;;5053811;28;20032;-78
2021/09/19 06:25:14;;;;;;;11.35;8.00;;;7.00;75.70;;;;;;5052016;28;20029;-76
2021/09/19 06:27:40;;;;;;;12.82;6.68;;;7.00;75.70;;;;;;5065837;28;20021;-76
2021/09/19 06:30:07;;;;;;;9.43;7.03;;;7.00;75.50;;;;;;5055566;28;20355;-78
2021/09/19 06:32:33;;;;;;;11.65;6.90;;;7.00;75.70;;;;;;5050568;28;20390;-78
2021/09/19 06:34:59;;;;;;;12.07;7.07;;;7.10;75.20;;;;;;5048883;28;20028;-79
2021/09/19 06:37:25;;;;;;;12.60;6.50;;;7.10;75.40;;;;;;5053221;28;20032;-78
2021/09/19 06:39:51;;;;;;;13.75;6.65;;;7.10;75.70;;;;;;5051870;28;20098;-79
2021/09/19 06:42:16;;;;;;;8.68;5.50;;;7.10;75.20;;;;;;5053004;28;20025;-78
2021/09/19 06:44:42;;;;;;;10.90;7.10;;;7.10;75.30;;;;;;5054472;28;20021;-78
2021/09/19 06:47:08;;;;;;;11.60;8.27;;;7.10;75.80;;;;;;5056884;28;20025;-77
2021/09/19 06:49:34;;;;;;;11.32;8.02;;;7.10;75.60;;;;;;5053708;28;20493;-77
2021/09/19 06:52:00;;;;;;;9.82;6.57;;;7.20;75.00;;;;;;5053023;28;20103;-78
2021/09/19 06:54:26;;;;;;;11.63;6.57;;;7.40;74.90;;;;;;5053796;28;20025;-80
2021/09/19 06:56:52;;;;;;;13.15;6.68;;;7.50;74.30;;;;;;5054861;28;20017;-79
2021/09/19 06:59:18;;;;;;;10.52;6.28;;;7.60;73.80;;;;;;5053726;28;20043;-80
2021/09/19 07:01:44;;;;;;;9.48;5.60;;;7.80;73.70;;;;;;5053323;28;20013;-81
2021/09/19 07:04:10;;;;;;;9.02;6.55;;;7.90;72.50;;;;;;5035037;28;20036;-80
2021/09/19 07:06:36;;;;;;;10.23;7.18;;;7.80;72.80;;;;;;5052822;28;20029;-80
2021/09/19 07:09:03;;;;;;;11.40;6.45;;;7.90;72.80;;;;;;5051647;28;20387;-79
2021/09/19 07:11:28;;;;;;;11.55;6.95;;;8.00;72.00;;;;;;5052634;28;20517;-79
2021/09/19 07:13:54;;;;;;;13.32;6.70;;;8.10;71.60;;;;;;5052609;28;20041;-79
2021/09/19 07:16:20;;;;;;;12.15;6.72;;;8.20;71.60;;;;;;5051386;28;20025;-78
2021/09/19 07:18:46;;;;;;;9.32;7.38;;;8.30;71.50;;;;;;5053072;28;20074;-80
2021/09/19 07:21:12;;;;;;;12.65;6.25;;;8.50;70.90;;;;;;5052465;28;20103;-78
2021/09/19 07:23:38;;;;;;;11.20;6.43;;;8.50;70.20;;;;;;5052415;28;20100;-80
2021/09/19 07:26:04;;;;;;;8.48;5.60;;;8.60;70.60;;;;;;5052787;28;20021;-80
2021/09/19 07:28:30;;;;;;;12.63;6.15;;;8.60;69.50;;;;;;5052274;28;20021;-80
2021/09/19 07:30:56;;;;;;;8.90;6.43;;;8.50;69.70;;;;;;5051668;28;20036;-78
2021/09/19 07:33:23;;;;;;;10.65;6.75;;;8.60;70.30;;;;;;5048570;28;20036;-78
2021/09/19 07:35:50;;;;;;;10.52;6.10;;;8.70;70.00;;;;;;5052515;28;20405;-78
2021/09/19 07:38:18;;;;;;;8.13;5.78;;;8.70;69.30;;;;;;5054383;28;20033;-79
2021/09/19 07:40:44;;;;;;;9.75;6.43;;;8.70;69.20;;;;;;5052824;28;20017;-79
2021/09/19 07:43:10;;;;;;;10.32;5.53;;;8.60;69.70;;;;;;5052139;28;20033;-80
2021/09/19 07:45:36;;;;;;;8.60;5.20;;;8.50;70.20;;;;;;5050654;28;20058;-79
2021/09/19 07:48:09;;;;;;;6.43;5.15;;;8.40;69.80;;;;;;5052112;28;20371;-79
2021/09/19 07:50:35;;;;;;;12.20;6.22;;;8.30;70.30;;;;;;5051783;28;20206;-78
2021/09/19 07:53:01;;;;;;;10.55;5.15;;;8.30;70.40;;;;;;5052183;28;20032;-78
2021/09/19 07:55:28;;;;;;;6.88;4.75;;;8.30;70.60;;;;;;5052085;28;20025;-79
2021/09/19 07:57:54;;;;;;;8.43;5.82;;;8.20;70.60;;;;;;5051966;28;20028;-78
2021/09/19 08:00:20;;;;;;;8.50;5.65;;;8.20;70.80;;;;;;5052295;28;20021;-80
2021/09/19 08:02:46;;;;;;;10.25;6.85;;;8.40;70.70;;;;;;5066541;28;20027;-80
2021/09/19 08:05:12;;;;;;;8.80;5.25;;;8.40;70.20;;;;;;5052475;28;20100;-81
2021/09/19 08:07:38;;;;;;;11.18;5.95;;;8.40;70.50;;;;;;5051804;28;20136;-79
2021/09/19 08:10:05;;;;;;;8.55;6.25;;;8.40;70.40;;;;;;5052077;28;20029;-79
2021/09/19 08:12:31;;;;;;;7.40;5.07;;;8.40;70.40;;;;;;5052237;28;20036;-79
2021/09/19 08:14:57;;;;;;;10.90;5.35;;;8.30;70.50;;;;;;5052350;28;20390;-80
2021/09/19 08:17:23;;;;;;;6.50;4.93;;;8.40;70.50;;;;;;5051272;28;20025;-80
2021/09/19 08:19:49;;;;;;;15.63;5.53;;;8.40;70.40;;;;;;5052906;28;20336;-78
2021/09/19 08:22:15;;;;;;;11.55;6.70;;;8.50;70.50;;;;;;5055620;28;20024;-78
2021/09/19 08:24:40;;;;;;;8.02;5.95;;;8.60;70.00;;;;;;5056461;28;20036;-78
2021/09/19 08:27:07;;;;;;;12.77;6.45;;;8.70;70.00;;;;;;5055967;28;20032;-78
2021/09/19 08:29:34;;;;;;;10.00;6.30;;;8.70;69.70;;;;;;5055097;28;20075;-78
2021/09/19 08:32:01;;;;;;;8.75;5.80;;;8.80;69.50;;;;;;5055147;28;20254;-78
2021/09/19 08:34:26;;;;;;;10.50;5.47;;;8.80;69.10;;;;;;5055649;28;20037;-80
2021/09/19 08:36:52;;;;;;;8.15;5.63;;;8.70;69.00;;;;;;5056155;28;20017;-79
2021/09/19 08:39:18;;;;;;;10.63;6.20;;;8.60;69.60;;;;;;5057605;28;20568;-79
2021/09/19 08:41:49;;;;;;;26.98;9.25;;;8.70;69.90;;;;;;5057254;28;20184;-79
2021/09/19 08:44:17;;;;;;;8.30;5.63;;;8.90;69.90;;;;;;5055610;28;20044;-79
2021/09/19 08:46:45;;;;;;;9.52;5.47;;;9.00;69.20;;;;;;5054250;28;20028;-80
2021/09/19 08:49:12;;;;;;;9.13;5.18;;;9.00;69.30;;;;;;5056217;28;20094;-80
2021/09/19 08:51:38;;;;;;;11.05;6.53;;;8.90;69.00;;;;;;5056771;28;20179;-79
2021/09/19 08:54:04;;;;;;;9.73;5.50;;;9.20;69.00;;;;;;5055945;28;20036;-79
2021/09/19 08:56:30;;;;;;;8.20;4.68;;;9.30;68.50;;;;;;5054069;28;20032;-79
2021/09/19 08:58:56;;;;;;;7.82;4.72;;;9.30;67.90;;;;;;5055439;28;20120;-79
2021/09/19 09:01:22;;;;;;;7.13;5.45;;;9.30;67.80;;;;;;5037632;28;20017;-80
2021/09/19 09:03:49;;;;;;;12.88;5.97;;;9.40;68.20;;;;;;5055695;28;20029;-77
2021/09/19 09:06:18;;;;;;;12.23;5.95;;;9.60;67.80;;;;;;5056719;28;20017;-79
2021/09/19 09:08:44;;;;;;;6.07;5.00;;;9.70;67.30;;;;;;5039664;28;20064;-79
2021/09/19 09:11:11;;;;;;;8.90;5.72;;;9.80;67.10;;;;;;5056215;28;20021;-78
2021/09/19 09:13:39;;;;;;;8.20;5.57;;;9.80;65.80;;;;;;5053936;28;20144;-79
2021/09/19 09:16:11;;;;;;;11.25;6.45;;;9.60;66.00;;;;;;5035983;28;20037;-79
2021/09/19 09:18:54;;;;;;;9.77;6.50;;;9.60;66.50;;;;;;5053338;28;20449;-78
2021/09/19 09:21:25;;;;;;;7.63;5.07;;;9.60;67.20;;;;;;5054586;28;20021;-77
2021/09/19 09:23:57;;;;;;;10.63;5.03;;;9.70;66.50;;;;;;5054511;28;20493;-79
2021/09/19 09:26:37;;;;;;;17.98;5.68;;;9.80;66.70;;;;;;5034278;28;20060;-77
2021/09/19 09:29:08;;;;;;;12.15;4.80;;;9.70;65.80;;;;;;5046396;28;20148;-80
2021/09/19 09:31:39;;;;;;;8.43;5.15;;;9.60;65.90;;;;;;5052203;28;20013;-79
2021/09/19 09:34:25;;;;;;;8.57;5.60;;;9.50;66.80;;;;;;5053017;28;20125;-81
2021/09/19 09:36:51;;;;;;;10.57;5.38;;;9.40;67.10;;;;;;5051787;28;20445;-80
2021/09/19 09:39:37;;;;;;;9.80;5.70;;;9.40;66.80;;;;;;5054351;28;20051;-79
2021/09/19 09:42:15;;;;;;;9.20;5.55;;;9.30;66.80;;;;;;5054099;28;20028;-79
2021/09/19 09:44:43;;;;;;;11.43;5.18;;;9.30;67.10;;;;;;5041833;28;20017;-80
2021/09/19 09:47:28;;;;;;;9.90;5.05;;;9.20;67.20;;;;;;5054161;28;20021;-77
2021/09/19 09:50:00;;;;;;;9.45;4.93;;;9.20;67.30;;;;;;5044790;28;20029;-80
2021/09/19 09:52:26;;;;;;;10.55;4.95;;;9.20;67.30;;;;;;5053272;28;21160;-80
2021/09/19 09:54:57;;;;;;;7.15;5.45;;;9.10;67.40;;;;;;5053898;28;20021;-79
2021/09/19 09:57:34;;;;;;;8.60;5.65;;;9.20;67.50;;;;;;5054189;28;20108;-83
2021/09/19 10:00:11;;;;;;;;;;;9.10;67.10;;;;;;5054425;28;20029;-80
2021/09/19 10:02:42;;;;;;;23.90;5.32;;;9.10;67.20;;;;;;5054122;28;19909;-79
2021/09/19 10:05:09;;;;;;;12.88;5.47;;;9.00;67.50;;;;;;5054240;28;20053;-76
2021/09/19 10:07:35;;;;;;;;;;;9.10;67.90;;;;;;5054427;28;20525;-81
2021/09/19 10:10:06;;;;;;;11.30;5.25;;;9.10;67.80;;;;;;5054750;28;19916;-78
2021/09/19 10:12:32;;;;;;;9.48;4.65;;;9.20;67.30;;;;;;5054642;28;20024;-78
2021/09/19 10:14:59;;;;;;;11.68;5.05;;;9.10;66.90;;;;;;5063323;28;20024;-78
2021/09/19 10:17:31;;;;;;;6.35;4.60;;;9.20;67.40;;;;;;5048015;28;20036;-77
2021/09/19 10:19:58;;;;;;;9.43;4.97;;;9.10;67.20;;;;;;5035781;28;20453;-78
2021/09/19 10:22:25;;;;;;;9.95;6.15;;;9.20;67.50;;;;;;5054371;28;20104;-82
2021/09/19 10:24:51;;;;;;;11.10;5.75;;;9.30;67.20;;;;;;5060176;28;20026;-81
2021/09/19 10:27:23;;;;;;;6.50;4.00;;;9.20;66.80;;;;;;5042610;28;20031;-79
2021/09/19 10:29:56;;;;;;;10.63;5.43;;;9.20;66.90;;;;;;5053360;28;20018;-78
2021/09/19 10:32:43;;;;;;;5.75;4.68;;;9.20;67.00;;;;;;5035198;28;20047;-79
2021/09/19 10:35:18;;;;;;;6.30;4.70;;;9.20;66.70;;;;;;5052367;28;20024;-80
2021/09/19 10:37:54;;;;;;;8.68;4.88;;;9.10;67.20;;;;;;5047447;28;20064;-80
2021/09/19 10:40:31;;;;;;;9.63;5.65;;;9.20;67.40;;;;;;5034506;28;20040;-82
2021/09/19 10:42:57;;;;;;;10.23;5.43;;;9.20;66.80;;;;;;5047612;28;20029;-81
2021/09/19 10:45:44;;;;;;;10.30;6.45;;;9.20;66.90;;;;;;5053015;28;20393;-85
2021/09/19 10:48:18;;;;;;;9.02;4.97;;;9.20;67.00;;;;;;5054342;28;20029;-82
2021/09/19 10:51:00;;;;;;;9.18;5.82;;;9.20;66.90;;;;;;5052274;28;20049;-85
2021/09/19 10:53:26;;;;;;;7.53;4.47;;;9.20;67.00;;;;;;5053675;28;20060;-85
2021/09/19 10:56:00;;;;;;;7.22;5.30;;;9.20;66.60;;;;;;5052220;28;20078;-86
2021/09/19 10:58:38;;;;;;;6.90;5.35;;;9.20;66.80;;;;;;5055246;28;20376;-84
2021/09/19 11:01:18;;;;;;;10.10;5.75;;;9.20;67.00;;;;;;5054152;28;20058;-86
2021/09/19 11:04:08;;;;;;;10.13;6.13;;;9.30;67.00;;;;;;5054359;28;20455;-85
2021/09/19 11:06:35;;;;;;;8.52;5.95;;;9.30;66.90;;;;;;5053668;28;20039;-86
2021/09/19 11:09:26;;;;;;;6.45;4.47;;;9.30;66.60;;;;;;5053293;28;20074;-84
2021/09/19 11:12:18;;;;;;;8.85;4.20;;;9.30;66.30;;;;;;5043066;28;20164;-83
2021/09/19 11:15:07;;;;;;;8.65;5.05;;;9.20;66.40;;;;;;5050306;28;20036;-84
2021/09/19 11:17:34;;;;;;;8.40;5.03;;;9.20;67.10;;;;;;5054434;28;20059;-84
2021/09/19 11:20:12;;;;;;;7.68;5.32;;;9.20;67.00;;;;;;5071147;28;20029;-90
2021/09/19 11:22:54;;;;;;;9.35;5.55;;;9.30;67.20;;;;;;5041550;28;20048;-86
2021/09/19 11:25:21;;;;;;;8.32;4.68;;;9.30;67.00;;;;;;5025972;28;20394;-87
2021/09/19 11:27:50;;;;;;;9.30;5.70;;;9.20;66.70;;;;;;5057797;28;20028;-88
2021/09/19 11:30:23;;;;;;;12.93;6.30;;;9.30;66.40;;;;;;5038929;28;20032;-83
2021/09/19 11:32:49;;;;;;;6.53;4.88;;;9.30;66.70;;;;;;5057698;28;20029;-83
2021/09/19 11:35:16;;;;;;;6.63;5.50;;;9.50;66.60;;;;;;5060919;28;20048;-90
2021/09/19 11:37:42;;;;;;;7.07;5.15;;;9.50;66.30;;;;;;5058746;28;20013;-87
2021/09/19 11:40:10;;;;;;;10.20;6.22;;;9.60;65.90;;;;;;5052622;28;20039;-83
2021/09/19 11:42:38;;;;;;;12.82;6.10;;;9.60;66.10;;;;;;5052596;28;20023;-85
2021/09/19 11:45:10;;;;;;;8.60;5.68;;;9.60;65.90;;;;;;5052851;28;20378;-85
2021/09/19 11:47:39;;;;;;;13.30;6.57;;;9.60;65.60;;;;;;5053100;28;20068;-85
2021/09/19 11:50:06;;;;;;;7.88;5.88;;;9.50;65.70;;;;;;5051990;28;20048;-84
2021/09/19 11:52:33;;;;;;;11.27;5.55;;;9.50;66.00;;;;;;5052601;28;20025;-87
2021/09/19 11:54:59;;;;;;;12.80;7.75;;;9.50;65.80;;;;;;5047972;28;20509;-82
2021/09/19 11:57:25;;;;;;;14.25;7.57;;;9.40;65.80;;;;;;5037045;28;20028;-85
2021/09/19 11:59:51;;;;;;;7.88;5.47;;;9.40;66.10;;;;;;5043627;28;20029;-88
2021/09/19 12:02:17;;;;;;;9.30;6.03;;;9.30;66.00;;;;;;5056271;28;20017;-86
2021/09/19 12:04:45;;;;;;;10.95;6.80;;;9.30;65.90;;;;;;5039651;28;20375;-86
2021/09/19 12:07:12;;;;;;;13.50;5.93;;;9.30;66.10;;;;;;5066739;28;20016;-85
2021/09/19 12:09:49;;;;;;;8.52;6.30;;;9.30;66.40;;;;;;5056490;28;20029;-85
2021/09/19 12:12:16;;;;;;;7.35;5.60;;;9.20;66.50;;;;;;5057058;28;20060;-85
2021/09/19 12:14:45;;;;;;;7.72;6.05;;;9.20;66.20;;;;;;5057658;28;20406;-83
2021/09/19 12:17:12;;;;;;;14.82;5.95;;;9.20;66.30;;;;;;5063791;28;20367;-86
2021/09/19 12:19:41;;;;;;;10.07;5.82;;;9.10;66.40;;;;;;5069989;28;20025;-85
2021/09/19 12:22:17;;;;;;;9.20;5.55;;;9.10;66.80;;;;;;5058677;28;20096;-86
2021/09/19 12:24:43;;;;;;;10.77;5.97;;;9.10;67.00;;;;;;5051911;28;20021;-85
2021/09/19 12:27:19;;;;;;;9.32;6.03;;;9.20;66.80;;;;;;5056996;28;20040;-87
2021/09/19 12:30:00;;;;;;;9.07;5.80;;;9.20;66.80;;;;;;5043817;28;20025;-85
2021/09/19 12:32:37;;;;;;;11.60;6.47;;;9.30;66.40;;;;;;5064861;28;20021;-91
2021/09/19 12:35:23;;;;;;;10.13;5.70;;;9.20;67.00;;;;;;5074190;28;20033;-89
2021/09/19 12:37:56;;;;;;;7.57;5.88;;;9.20;66.90;;;;;;5068598;28;20068;-91
2021/09/19 12:40:24;;;;;;;9.63;6.05;;;9.20;66.80;;;;;;5056147;28;20106;-84
2021/09/19 12:42:52;;;;;;;8.98;5.72;;;9.20;67.00;;;;;;5054614;28;20021;-84
2021/09/19 12:45:22;;;;;;;9.05;5.18;;;9.20;66.80;;;;;;5056591;28;20021;-83
2021/09/19 12:47:56;;;;;;;11.05;6.18;;;9.20;66.90;;;;;;5059307;28;20013;-83
2021/09/19 12:50:23;;;;;;;9.93;6.32;;;9.10;67.00;;;;;;5050892;28;20393;-83
2021/09/19 12:52:55;;;;;;;13.43;5.43;;;9.10;67.30;;;;;;5055583;28;20073;-82
2021/09/19 12:55:21;;;;;;;14.50;6.18;;;9.10;67.40;;;;;;5054780;28;20120;-81
2021/09/19 12:57:48;;;;;;;11.98;5.97;;;9.10;67.30;;;;;;5056315;28;20059;-84